createdAt,value
2022-08-25T00:00:23.000Z,93.28
2022-08-25T00:01:23.000Z,93.28
2022-08-25T00:02:23.000Z,93.38
2022-08-25T00:03:23.000Z,93.78
2022-08-25T00:04:23.000Z,93.58
2022-08-25T00:05:23.000Z,93.48
2022-08-25T00:06:23.000Z,93.48
2022-08-25T00:07:23.000Z,93.58
2022-08-25T00:08:23.000Z,93.78
2022-08-25T00:09:23.000Z,93.88
2022-08-25T00:10:23.000Z,93.78
2022-08-25T00:11:23.000Z,93.68
2022-08-25T00:12:23.000Z,93.58
2022-08-25T00:13:23.000Z,93.48
2022-08-25T00:14:23.000Z,93.38
2022-08-25T00:15:23.000Z,93.48
2022-08-25T00:16:23.000Z,93.28
2022-08-25T00:17:23.000Z,93.18
2022-08-25T00:18:23.000Z,93.58
2022-08-25T00:19:23.000Z,93.38
2022-08-25T00:20:23.000Z,93.38
2022-08-25T00:21:23.000Z,93.48
2022-08-25T00:22:23.000Z,93.28
2022-08-25T00:23:23.000Z,93.28
2022-08-25T00:24:23.000Z,93.18
2022-08-25T00:25:23.000Z,93.48
2022-08-25T00:26:23.000Z,93.18
2022-08-25T00:27:23.000Z,93.18
2022-08-25T00:28:23.000Z,93.58
2022-08-25T00:29:23.000Z,93.68
2022-08-25T00:30:23.000Z,93.78
2022-08-25T00:31:23.000Z,93.88
2022-08-25T00:32:23.000Z,93.98
2022-08-25T00:33:23.000Z,94.08
2022-08-25T00:34:23.000Z,93.88
2022-08-25T00:35:23.000Z,93.88
2022-08-25T00:36:23.000Z,93.88
2022-08-25T00:37:23.000Z,93.98
2022-08-25T00:38:23.000Z,93.98
2022-08-25T00:39:23.000Z,94.33
2022-08-25T00:40:22.000Z,94.43
2022-08-25T00:41:22.000Z,94.43
2022-08-25T00:42:22.000Z,94.13
2022-08-25T00:43:22.000Z,94.23
2022-08-25T00:44:22.000Z,94.33
2022-08-25T00:45:22.000Z,94.73
2022-08-25T00:46:22.000Z,94.53
2022-08-25T00:47:22.000Z,94.93
2022-08-25T00:48:22.000Z,95.03
2022-08-25T00:49:22.000Z,95.03
2022-08-25T00:50:22.000Z,95.03
2022-08-25T00:51:22.000Z,95.03
2022-08-25T00:52:22.000Z,95.03
2022-08-25T00:53:22.000Z,95.03
2022-08-25T00:54:22.000Z,95.33
2022-08-25T00:55:22.000Z,95.23
2022-08-25T00:56:22.000Z,95.33
2022-08-25T00:57:22.000Z,95.43
2022-08-25T00:58:22.000Z,95.43
2022-08-25T00:59:22.000Z,95.73
2022-08-25T01:00:22.000Z,95.78
2022-08-25T01:01:22.000Z,95.88
2022-08-25T01:02:22.000Z,95.88
2022-08-25T01:03:22.000Z,96.08
2022-08-25T01:04:22.000Z,96.08
2022-08-25T01:05:22.000Z,96.08
2022-08-25T01:06:22.000Z,95.98
2022-08-25T01:07:22.000Z,95.94
2022-08-25T01:08:22.000Z,95.98
2022-08-25T01:09:22.000Z,95.98
2022-08-25T01:10:22.000Z,95.88
2022-08-25T01:11:22.000Z,95.88
2022-08-25T01:12:22.000Z,95.98
2022-08-25T01:13:22.000Z,95.98
2022-08-25T01:14:22.000Z,95.98
2022-08-25T01:15:22.000Z,95.94
2022-08-25T01:16:22.000Z,95.98
2022-08-25T01:17:22.000Z,95.84
2022-08-25T01:18:22.000Z,95.88
2022-08-25T01:19:22.000Z,95.88
2022-08-25T01:20:22.000Z,95.78
2022-08-25T01:21:22.000Z,95.88
2022-08-25T01:22:22.000Z,95.88
2022-08-25T01:23:22.000Z,95.84
2022-08-25T01:24:22.000Z,95.88
2022-08-25T01:25:22.000Z,95.84
2022-08-25T01:26:22.000Z,95.88
2022-08-25T01:27:22.000Z,95.88
2022-08-25T01:28:22.000Z,95.88
2022-08-25T01:29:22.000Z,95.88
2022-08-25T01:30:22.000Z,95.78
2022-08-25T01:31:22.000Z,95.78
2022-08-25T01:32:22.000Z,95.88
2022-08-25T01:33:22.000Z,95.98
2022-08-25T01:34:22.000Z,95.98
2022-08-25T01:35:22.000Z,96.19
2022-08-25T01:36:22.000Z,96.28
2022-08-25T01:37:22.000Z,96.19
2022-08-25T01:38:22.000Z,96.19
2022-08-25T01:39:22.000Z,95.88
2022-08-25T01:40:22.000Z,96.28
2022-08-25T01:41:22.000Z,96.39
2022-08-25T01:42:22.000Z,96.39
2022-08-25T01:43:22.000Z,96.69
2022-08-25T01:44:22.000Z,96.78
2022-08-25T01:45:22.000Z,96.78
2022-08-25T01:46:22.000Z,96.89
2022-08-25T01:47:22.000Z,97.09
2022-08-25T01:48:22.000Z,97.09
2022-08-25T01:49:22.000Z,96.98
2022-08-25T01:50:22.000Z,96.89
2022-08-25T01:51:22.000Z,96.89
2022-08-25T01:52:22.000Z,96.89
2022-08-25T01:53:22.000Z,96.89
2022-08-25T01:54:21.000Z,96.89
2022-08-25T01:55:21.000Z,96.89
2022-08-25T01:56:21.000Z,97.09
2022-08-25T01:57:21.000Z,96.98
2022-08-25T01:58:21.000Z,96.98
2022-08-25T01:59:21.000Z,96.98
2022-08-25T02:00:21.000Z,96.89
2022-08-25T02:01:21.000Z,96.83
2022-08-25T02:02:21.000Z,97.03
2022-08-25T02:03:21.000Z,97.24
2022-08-25T02:04:21.000Z,97.53
2022-08-25T02:05:21.000Z,97.74
2022-08-25T02:06:21.000Z,97.74
2022-08-25T02:07:21.000Z,97.64
2022-08-25T02:08:21.000Z,97.84
2022-08-25T02:09:21.000Z,97.84
2022-08-25T02:10:21.000Z,97.74
2022-08-25T02:11:21.000Z,97.74
2022-08-25T02:12:21.000Z,97.84
2022-08-25T02:13:21.000Z,97.94
2022-08-25T02:14:21.000Z,97.94
2022-08-25T02:15:21.000Z,98.14
2022-08-25T02:16:21.000Z,98.34
2022-08-25T02:17:21.000Z,98.44
2022-08-25T02:18:21.000Z,98.54
2022-08-25T02:19:21.000Z,98.65
2022-08-25T02:20:21.000Z,98.65
2022-08-25T02:21:21.000Z,98.65
2022-08-25T02:22:21.000Z,98.74
2022-08-25T02:23:21.000Z,98.74
2022-08-25T02:24:21.000Z,98.65
2022-08-25T02:25:21.000Z,98.85
2022-08-25T02:26:21.000Z,98.74
2022-08-25T02:27:21.000Z,98.85
2022-08-25T02:28:21.000Z,98.85
2022-08-25T02:29:21.000Z,98.94
2022-08-25T02:30:21.000Z,99.05
2022-08-25T02:31:21.000Z,98.94
2022-08-25T02:32:21.000Z,98.94
2022-08-25T02:33:21.000Z,98.94
2022-08-25T02:34:21.000Z,99.05
2022-08-25T02:35:21.000Z,99.15
2022-08-25T02:36:21.000Z,99.45
2022-08-25T02:37:21.000Z,99.25
2022-08-25T02:38:21.000Z,99.15
2022-08-25T02:39:21.000Z,99.25
2022-08-25T02:40:21.000Z,99.40
2022-08-25T02:41:21.000Z,99.35
2022-08-25T02:42:21.000Z,99.40
2022-08-25T02:43:21.000Z,99.30
2022-08-25T02:44:21.000Z,99.30
2022-08-25T02:45:21.000Z,99.50
2022-08-25T02:46:21.000Z,99.60
2022-08-25T02:47:21.000Z,99.50
2022-08-25T02:48:21.000Z,99.40
2022-08-25T02:49:21.000Z,99.40
2022-08-25T02:50:21.000Z,99.40
2022-08-25T02:51:21.000Z,99.30
2022-08-25T02:52:21.000Z,99.50
2022-08-25T02:53:21.000Z,99.19
2022-08-25T02:54:21.000Z,99.30
2022-08-25T02:55:21.000Z,99.65
2022-08-25T02:56:21.000Z,99.65
2022-08-25T02:57:21.000Z,99.85
2022-08-25T02:58:21.000Z,99.99
2022-08-25T02:59:21.000Z,99.99
2022-08-25T03:00:21.000Z,99.99
2022-08-25T03:01:21.000Z,99.99
2022-08-25T03:02:21.000Z,99.99
2022-08-25T03:02:21.000Z,99.99
2022-08-25T03:03:21.000Z,99.99
2022-08-25T03:03:21.000Z,99.99
2022-08-25T03:04:21.000Z,99.99
2022-08-25T03:04:21.000Z,99.99
2022-08-25T03:05:21.000Z,99.99
2022-08-25T03:05:21.000Z,99.99
2022-08-25T03:06:21.000Z,99.99
2022-08-25T03:06:21.000Z,99.99
2022-08-25T03:07:20.000Z,99.99
2022-08-25T03:08:20.000Z,99.99
2022-08-25T03:09:20.000Z,99.99
2022-08-25T03:10:20.000Z,99.99
2022-08-25T03:11:20.000Z,99.99
2022-08-25T03:12:20.000Z,99.99
2022-08-25T03:13:20.000Z,99.99
2022-08-25T03:14:20.000Z,99.99
2022-08-25T03:15:20.000Z,99.99
2022-08-25T03:16:20.000Z,99.99
2022-08-25T03:17:20.000Z,99.99
2022-08-25T03:18:20.000Z,99.99
2022-08-25T03:19:20.000Z,99.99
2022-08-25T03:20:20.000Z,99.99
2022-08-25T03:21:20.000Z,99.99
2022-08-25T03:22:20.000Z,99.99
2022-08-25T03:23:20.000Z,99.99
2022-08-25T03:24:20.000Z,99.99
2022-08-25T03:25:20.000Z,99.99
2022-08-25T03:26:20.000Z,99.99
2022-08-25T03:27:20.000Z,99.99
2022-08-25T03:28:20.000Z,99.99
2022-08-25T03:29:20.000Z,99.99
2022-08-25T03:30:20.000Z,99.99
2022-08-25T03:31:20.000Z,99.99
2022-08-25T03:32:20.000Z,99.99
2022-08-25T03:33:20.000Z,99.99
2022-08-25T03:34:20.000Z,99.99
2022-08-25T03:35:20.000Z,99.99
2022-08-25T03:36:20.000Z,99.99
2022-08-25T03:37:20.000Z,99.99
2022-08-25T03:38:20.000Z,99.99
2022-08-25T03:39:20.000Z,99.99
2022-08-25T03:40:20.000Z,99.99
2022-08-25T03:41:20.000Z,99.99
2022-08-25T03:42:20.000Z,99.99
2022-08-25T03:43:20.000Z,99.99
2022-08-25T03:44:20.000Z,99.99
2022-08-25T03:45:20.000Z,99.99
2022-08-25T03:46:20.000Z,99.99
2022-08-25T03:47:20.000Z,99.99
2022-08-25T03:48:20.000Z,99.99
2022-08-25T03:49:20.000Z,99.99
2022-08-25T03:50:20.000Z,99.99
2022-08-25T03:51:20.000Z,99.99
2022-08-25T03:52:20.000Z,99.99
2022-08-25T03:53:20.000Z,99.99
2022-08-25T03:54:20.000Z,99.99
2022-08-25T03:55:20.000Z,99.99
2022-08-25T03:56:20.000Z,99.99
2022-08-25T03:57:20.000Z,99.99
2022-08-25T03:58:20.000Z,99.99
2022-08-25T03:59:20.000Z,99.99
2022-08-25T04:00:20.000Z,99.99
2022-08-25T04:01:20.000Z,99.99
2022-08-25T04:02:20.000Z,99.99
2022-08-25T04:03:20.000Z,99.99
2022-08-25T04:04:20.000Z,99.99
2022-08-25T04:05:20.000Z,99.99
2022-08-25T04:06:20.000Z,99.99
2022-08-25T04:07:20.000Z,99.99
2022-08-25T04:08:20.000Z,99.99
2022-08-25T04:09:20.000Z,99.99
2022-08-25T04:10:20.000Z,99.99
2022-08-25T04:11:20.000Z,99.99
2022-08-25T04:12:20.000Z,99.99
2022-08-25T04:13:20.000Z,99.99
2022-08-25T04:14:20.000Z,99.99
2022-08-25T04:15:20.000Z,99.99
2022-08-25T04:16:20.000Z,99.99
2022-08-25T04:17:20.000Z,99.99
2022-08-25T04:18:20.000Z,99.99
2022-08-25T04:19:20.000Z,99.99
2022-08-25T04:20:19.000Z,99.99
2022-08-25T04:21:19.000Z,99.99
2022-08-25T04:22:19.000Z,99.99
2022-08-25T04:23:19.000Z,99.99
2022-08-25T04:24:19.000Z,99.99
2022-08-25T04:25:19.000Z,99.99
2022-08-25T04:26:19.000Z,99.99
2022-08-25T04:27:19.000Z,99.99
2022-08-25T04:28:19.000Z,99.99
2022-08-25T04:29:19.000Z,99.99
2022-08-25T04:30:19.000Z,99.99
2022-08-25T04:31:19.000Z,99.99
2022-08-25T04:32:19.000Z,99.99
2022-08-25T04:33:19.000Z,99.99
2022-08-25T04:34:19.000Z,99.99
2022-08-25T04:35:19.000Z,99.99
2022-08-25T04:36:19.000Z,99.99
2022-08-25T04:37:19.000Z,99.99
2022-08-25T04:38:19.000Z,99.99
2022-08-25T04:39:19.000Z,99.99
2022-08-25T04:40:19.000Z,99.99
2022-08-25T04:41:19.000Z,99.99
2022-08-25T04:42:19.000Z,99.99
2022-08-25T04:43:19.000Z,99.99
2022-08-25T04:44:19.000Z,99.99
2022-08-25T04:45:19.000Z,99.99
2022-08-25T04:46:19.000Z,99.99
2022-08-25T04:47:19.000Z,99.99
2022-08-25T04:48:19.000Z,99.99
2022-08-25T04:49:19.000Z,99.99
2022-08-25T04:50:19.000Z,99.99
2022-08-25T04:51:19.000Z,99.99
2022-08-25T04:52:19.000Z,99.99
2022-08-25T04:53:19.000Z,99.99
2022-08-25T04:54:19.000Z,99.99
2022-08-25T04:55:19.000Z,99.99
2022-08-25T04:56:19.000Z,99.99
2022-08-25T04:57:19.000Z,99.99
2022-08-25T04:58:19.000Z,99.99
2022-08-25T04:59:19.000Z,99.99
2022-08-25T05:00:19.000Z,99.99
2022-08-25T05:01:19.000Z,99.99
2022-08-25T05:02:19.000Z,99.99
2022-08-25T05:03:19.000Z,99.99
2022-08-25T05:04:19.000Z,99.99
2022-08-25T05:05:19.000Z,99.99
2022-08-25T05:06:19.000Z,99.99
2022-08-25T05:07:19.000Z,99.99
2022-08-25T05:08:19.000Z,99.99
2022-08-25T05:09:19.000Z,99.99
2022-08-25T05:10:19.000Z,99.99
2022-08-25T05:11:19.000Z,99.99
2022-08-25T05:12:19.000Z,99.99
2022-08-25T05:13:19.000Z,99.99
2022-08-25T05:14:19.000Z,99.99
2022-08-25T05:15:19.000Z,99.99
2022-08-25T05:16:19.000Z,99.99
2022-08-25T05:17:19.000Z,99.99
2022-08-25T05:18:19.000Z,99.99
2022-08-25T05:19:19.000Z,99.99
2022-08-25T05:20:19.000Z,99.99
2022-08-25T05:21:19.000Z,99.99
2022-08-25T05:22:19.000Z,99.99
2022-08-25T05:23:19.000Z,99.99
2022-08-25T05:24:19.000Z,99.99
2022-08-25T05:25:19.000Z,99.99
2022-08-25T05:26:19.000Z,99.99
2022-08-25T05:27:19.000Z,99.99
2022-08-25T05:28:19.000Z,99.99
2022-08-25T05:29:19.000Z,99.99
2022-08-25T05:30:19.000Z,99.99
2022-08-25T05:31:19.000Z,99.99
2022-08-25T05:32:19.000Z,99.99
2022-08-25T05:33:18.000Z,99.99
2022-08-25T05:34:18.000Z,99.99
2022-08-25T05:35:18.000Z,99.99
2022-08-25T05:36:18.000Z,99.99
2022-08-25T05:37:18.000Z,99.99
2022-08-25T05:38:18.000Z,99.99
2022-08-25T05:39:18.000Z,99.99
2022-08-25T05:40:18.000Z,99.99
2022-08-25T05:41:18.000Z,99.99
2022-08-25T05:42:18.000Z,99.99
2022-08-25T05:43:18.000Z,99.99
2022-08-25T05:44:18.000Z,99.99
2022-08-25T05:45:18.000Z,99.99
2022-08-25T05:46:18.000Z,99.99
2022-08-25T05:47:18.000Z,99.99
2022-08-25T05:48:18.000Z,99.99
2022-08-25T05:49:18.000Z,99.99
2022-08-25T05:50:18.000Z,99.99
2022-08-25T05:51:18.000Z,99.87
2022-08-25T05:52:18.000Z,99.76
2022-08-25T05:53:18.000Z,99.66
2022-08-25T05:54:18.000Z,99.66
2022-08-25T05:55:18.000Z,99.56
2022-08-25T05:56:18.000Z,99.41
2022-08-25T05:57:18.000Z,99.32
2022-08-25T05:58:18.000Z,99.21
2022-08-25T05:59:18.000Z,98.91
2022-08-25T06:00:18.000Z,98.91
2022-08-25T06:01:18.000Z,98.81
2022-08-25T06:02:18.000Z,98.61
2022-08-25T06:03:18.000Z,98.46
2022-08-25T06:04:18.000Z,98.36
2022-08-25T06:05:18.000Z,98.07
2022-08-25T06:06:18.000Z,97.76
2022-08-25T06:07:18.000Z,97.76
2022-08-25T06:08:18.000Z,97.72
2022-08-25T06:09:18.000Z,97.52
2022-08-25T06:10:18.000Z,97.21
2022-08-25T06:11:18.000Z,97.21
2022-08-25T06:12:18.000Z,97.21
2022-08-25T06:13:18.000Z,96.81
2022-08-25T06:14:18.000Z,96.51
2022-08-25T06:15:18.000Z,96.47
2022-08-25T06:16:18.000Z,96.36
2022-08-25T06:17:18.000Z,96.26
2022-08-25T06:18:18.000Z,96.17
2022-08-25T06:19:18.000Z,96.17
2022-08-25T06:20:18.000Z,95.72
2022-08-25T06:21:18.000Z,95.72
2022-08-25T06:22:18.000Z,95.62
2022-08-25T06:23:18.000Z,95.52
2022-08-25T06:24:18.000Z,95.01
2022-08-25T06:25:18.000Z,95.01
2022-08-25T06:26:18.000Z,94.82
2022-08-25T06:27:18.000Z,94.67
2022-08-25T06:28:18.000Z,94.77
2022-08-25T06:29:18.000Z,94.67
2022-08-25T06:30:18.000Z,94.27
2022-08-25T06:31:18.000Z,94.37
2022-08-25T06:32:18.000Z,94.17
2022-08-25T06:33:18.000Z,93.23
2022-08-25T06:34:18.000Z,93.43
2022-08-25T06:35:18.000Z,93.23
2022-08-25T06:36:18.000Z,93.12
2022-08-25T06:37:18.000Z,92.93
2022-08-25T06:38:18.000Z,93.02
2022-08-25T06:39:18.000Z,92.93
2022-08-25T06:40:18.000Z,92.72
2022-08-25T06:41:18.000Z,92.68
2022-08-25T06:42:18.000Z,92.58
2022-08-25T06:43:18.000Z,92.68
2022-08-25T06:44:18.000Z,92.78
2022-08-25T06:45:18.000Z,92.68
2022-08-25T06:46:18.000Z,92.08
2022-08-25T06:47:17.000Z,92.13
2022-08-25T06:48:17.000Z,91.74
2022-08-25T06:49:17.000Z,91.74
2022-08-25T06:50:17.000Z,91.63
2022-08-25T06:51:17.000Z,91.44
2022-08-25T06:52:17.000Z,91.83
2022-08-25T06:53:17.000Z,91.44
2022-08-25T06:54:17.000Z,90.89
2022-08-25T06:55:17.000Z,90.89
2022-08-25T06:56:17.000Z,90.89
2022-08-25T06:57:17.000Z,90.69
2022-08-25T06:58:17.000Z,90.59
2022-08-25T06:59:17.000Z,90.29
2022-08-25T07:00:17.000Z,89.99
2022-08-25T07:01:17.000Z,89.89
2022-08-25T07:02:17.000Z,90.29
2022-08-25T07:02:17.000Z,90.29
2022-08-25T07:03:17.000Z,90.39
2022-08-25T07:03:17.000Z,90.39
2022-08-25T07:04:17.000Z,90.55
2022-08-25T07:04:17.000Z,90.55
2022-08-25T07:05:17.000Z,90.15
2022-08-25T07:05:17.000Z,90.15
2022-08-25T07:06:17.000Z,89.85
2022-08-25T07:06:17.000Z,89.85
2022-08-25T07:07:17.000Z,89.01
2022-08-25T07:08:17.000Z,89.20
2022-08-25T07:09:17.000Z,88.71
2022-08-25T07:10:17.000Z,88.71
2022-08-25T07:11:17.000Z,88.10
2022-08-25T07:12:17.000Z,88.51
2022-08-25T07:13:17.000Z,88.71
2022-08-25T07:14:17.000Z,88.46
2022-08-25T07:15:17.000Z,88.37
2022-08-25T07:16:17.000Z,88.17
2022-08-25T07:17:17.000Z,87.87
2022-08-25T07:18:17.000Z,87.66
2022-08-25T07:19:17.000Z,87.52
2022-08-25T07:20:17.000Z,86.93
2022-08-25T07:21:17.000Z,87.23
2022-08-25T07:22:17.000Z,86.93
2022-08-25T07:23:17.000Z,87.12
2022-08-25T07:24:17.000Z,86.68
2022-08-25T07:25:17.000Z,85.88
2022-08-25T07:26:17.000Z,85.49
2022-08-25T07:27:17.000Z,85.78
2022-08-25T07:28:17.000Z,85.58
2022-08-25T07:29:17.000Z,85.14
2022-08-25T07:30:17.000Z,84.35
2022-08-25T07:31:17.000Z,84.25
2022-08-25T07:32:17.000Z,84.05
2022-08-25T07:33:17.000Z,84.31
2022-08-25T07:34:17.000Z,84.11
2022-08-25T07:35:17.000Z,84.01
2022-08-25T07:36:17.000Z,84.21
2022-08-25T07:37:17.000Z,84.01
2022-08-25T07:38:17.000Z,83.77
2022-08-25T07:39:17.000Z,83.37
2022-08-25T07:40:17.000Z,82.97
2022-08-25T07:41:17.000Z,82.54
2022-08-25T07:42:17.000Z,81.44
2022-08-25T07:43:17.000Z,81.34
2022-08-25T07:44:17.000Z,81.24
2022-08-25T07:45:17.000Z,81.30
2022-08-25T07:46:17.000Z,80.90
2022-08-25T07:47:17.000Z,80.96
2022-08-25T07:48:17.000Z,80.17
2022-08-25T07:49:17.000Z,80.36
2022-08-25T07:50:17.000Z,80.36
2022-08-25T07:51:17.000Z,79.24
2022-08-25T07:52:17.000Z,79.47
2022-08-25T07:53:17.000Z,79.57
2022-08-25T07:54:17.000Z,79.97
2022-08-25T07:55:17.000Z,79.97
2022-08-25T07:56:17.000Z,79.47
2022-08-25T07:57:17.000Z,78.58
2022-08-25T07:58:17.000Z,78.67
2022-08-25T07:59:17.000Z,78.67
2022-08-25T08:00:16.000Z,79.57
2022-08-25T08:01:16.000Z,78.58
2022-08-25T08:02:16.000Z,78.97
2022-08-25T08:02:16.000Z,78.97
2022-08-25T08:03:16.000Z,78.48
2022-08-25T08:03:16.000Z,78.48
2022-08-25T08:04:16.000Z,78.48
2022-08-25T08:04:16.000Z,78.48
2022-08-25T08:05:16.000Z,78.48
2022-08-25T08:05:16.000Z,78.48
2022-08-25T08:06:16.000Z,78.18
2022-08-25T08:06:16.000Z,78.18
2022-08-25T08:07:16.000Z,78.08
2022-08-25T08:08:16.000Z,79.08
2022-08-25T08:09:16.000Z,77.84
2022-08-25T08:10:16.000Z,77.70
2022-08-25T08:11:16.000Z,76.68
2022-08-25T08:12:16.000Z,75.55
2022-08-25T08:13:16.000Z,74.58
2022-08-25T08:14:16.000Z,72.66
2022-08-25T08:15:16.000Z,72.92
2022-08-25T08:16:16.000Z,72.60
2022-08-25T08:17:16.000Z,71.60
2022-08-25T08:18:16.000Z,71.44
2022-08-25T08:19:16.000Z,70.94
2022-08-25T08:20:16.000Z,71.73
2022-08-25T08:21:16.000Z,72.27
2022-08-25T08:22:16.000Z,72.86
2022-08-25T08:23:16.000Z,72.86
2022-08-25T08:24:16.000Z,73.65
2022-08-25T08:25:16.000Z,73.65
2022-08-25T08:26:16.000Z,73.29
2022-08-25T08:27:16.000Z,73.10
2022-08-25T08:27:16.000Z,73.10
2022-08-25T08:28:16.000Z,73.00
2022-08-25T08:28:16.000Z,73.00
2022-08-25T08:29:16.000Z,73.10
2022-08-25T08:29:16.000Z,73.10
2022-08-25T08:30:16.000Z,74.38
2022-08-25T08:30:16.000Z,74.38
2022-08-25T08:31:16.000Z,74.08
2022-08-25T08:31:16.000Z,74.08
2022-08-25T08:32:16.000Z,74.08
2022-08-25T08:33:16.000Z,74.08
2022-08-25T08:34:16.000Z,74.68
2022-08-25T08:35:16.000Z,73.89
2022-08-25T08:36:16.000Z,73.99
2022-08-25T08:37:16.000Z,73.85
2022-08-25T08:38:16.000Z,72.60
2022-08-25T08:39:16.000Z,71.70
2022-08-25T08:40:16.000Z,71.90
2022-08-25T08:41:16.000Z,72.13
2022-08-25T08:42:16.000Z,72.43
2022-08-25T08:43:16.000Z,72.83
2022-08-25T08:44:16.000Z,72.66
2022-08-25T08:45:16.000Z,73.95
2022-08-25T08:46:16.000Z,73.22
2022-08-25T08:47:16.000Z,72.63
2022-08-25T08:48:16.000Z,73.42
2022-08-25T08:49:16.000Z,73.28
2022-08-25T08:50:16.000Z,71.77
2022-08-25T08:51:16.000Z,70.05
2022-08-25T08:52:16.000Z,69.49
2022-08-25T08:53:16.000Z,67.68
2022-08-25T08:54:16.000Z,67.44
2022-08-25T08:55:16.000Z,66.85
2022-08-25T08:56:16.000Z,67.15
2022-08-25T08:57:16.000Z,68.04
2022-08-25T08:57:16.000Z,68.04
2022-08-25T08:58:16.000Z,67.68
2022-08-25T08:58:16.000Z,67.68
2022-08-25T08:59:16.000Z,67.87
2022-08-25T08:59:16.000Z,67.87
2022-08-25T09:00:16.000Z,66.26
2022-08-25T09:00:16.000Z,66.26
2022-08-25T09:01:16.000Z,66.72
2022-08-25T09:01:16.000Z,66.72
2022-08-25T09:02:16.000Z,65.83
2022-08-25T09:03:16.000Z,65.50
2022-08-25T09:04:16.000Z,64.52
2022-08-25T09:05:16.000Z,64.00
2022-08-25T09:06:16.000Z,64.00
2022-08-25T09:07:16.000Z,65.01
2022-08-25T09:08:16.000Z,65.37
2022-08-25T09:09:16.000Z,66.09
2022-08-25T09:10:16.000Z,66.92
2022-08-25T09:11:16.000Z,68.13
2022-08-25T09:12:16.000Z,68.86
2022-08-25T09:13:15.000Z,68.66
2022-08-25T09:14:15.000Z,68.37
2022-08-25T09:15:15.000Z,68.99
2022-08-25T09:16:15.000Z,69.35
2022-08-25T09:17:15.000Z,68.53
2022-08-25T09:17:15.000Z,68.53
2022-08-25T09:18:15.000Z,67.84
2022-08-25T09:18:15.000Z,67.84
2022-08-25T09:19:15.000Z,67.84
2022-08-25T09:19:15.000Z,67.84
2022-08-25T09:20:15.000Z,67.84
2022-08-25T09:20:15.000Z,67.84
2022-08-25T09:21:15.000Z,68.73
2022-08-25T09:21:15.000Z,68.73
2022-08-25T09:22:15.000Z,69.32
2022-08-25T09:23:15.000Z,69.29
2022-08-25T09:24:15.000Z,68.76
2022-08-25T09:25:15.000Z,67.68
2022-08-25T09:26:15.000Z,66.46
2022-08-25T09:27:15.000Z,66.46
2022-08-25T09:27:15.000Z,66.46
2022-08-25T09:28:15.000Z,65.57
2022-08-25T09:28:15.000Z,65.57
2022-08-25T09:29:15.000Z,65.80
2022-08-25T09:29:15.000Z,65.80
2022-08-25T09:30:15.000Z,65.97
2022-08-25T09:30:15.000Z,65.97
2022-08-25T09:31:15.000Z,65.97
2022-08-25T09:31:15.000Z,65.97
2022-08-25T09:32:15.000Z,66.26
2022-08-25T09:33:15.000Z,65.93
2022-08-25T09:34:15.000Z,67.08
2022-08-25T09:35:15.000Z,65.93
2022-08-25T09:36:15.000Z,65.27
2022-08-25T09:37:15.000Z,65.67
2022-08-25T09:38:15.000Z,65.64
2022-08-25T09:39:15.000Z,65.05
2022-08-25T09:40:15.000Z,65.27
2022-08-25T09:41:15.000Z,65.70
2022-08-25T09:42:15.000Z,66.09
2022-08-25T09:43:15.000Z,67.21
2022-08-25T09:44:15.000Z,67.64
2022-08-25T09:45:15.000Z,68.33
2022-08-25T09:46:15.000Z,68.93
2022-08-25T09:47:15.000Z,68.76
2022-08-25T09:48:15.000Z,68.93
2022-08-25T09:49:15.000Z,68.90
2022-08-25T09:50:15.000Z,68.66
2022-08-25T09:51:15.000Z,67.08
2022-08-25T09:52:15.000Z,66.92
2022-08-25T09:53:15.000Z,67.51
2022-08-25T09:54:15.000Z,67.61
2022-08-25T09:55:15.000Z,68.10
2022-08-25T09:56:15.000Z,68.93
2022-08-25T09:57:15.000Z,68.43
2022-08-25T09:58:15.000Z,68.53
2022-08-25T09:59:15.000Z,68.93
2022-08-25T10:00:15.000Z,68.96
2022-08-25T10:01:15.000Z,68.86
2022-08-25T10:02:15.000Z,68.86
2022-08-25T10:03:15.000Z,70.45
2022-08-25T10:04:15.000Z,70.57
2022-08-25T10:05:15.000Z,68.66
2022-08-25T10:06:15.000Z,68.30
2022-08-25T10:07:15.000Z,66.49
2022-08-25T10:08:15.000Z,65.90
2022-08-25T10:09:15.000Z,65.47
2022-08-25T10:10:15.000Z,64.36
2022-08-25T10:11:15.000Z,62.38
2022-08-25T10:12:15.000Z,63.11
2022-08-25T10:13:15.000Z,63.90
2022-08-25T10:14:15.000Z,62.52
2022-08-25T10:15:15.000Z,63.31
2022-08-25T10:16:15.000Z,63.01
2022-08-25T10:17:15.000Z,63.60
2022-08-25T10:18:15.000Z,64.22
2022-08-25T10:19:15.000Z,64.84
2022-08-25T10:20:15.000Z,64.45
2022-08-25T10:21:15.000Z,64.65
2022-08-25T10:22:15.000Z,64.36
2022-08-25T10:23:15.000Z,64.06
2022-08-25T10:24:15.000Z,63.86
2022-08-25T10:25:15.000Z,64.84
2022-08-25T10:26:15.000Z,64.55
2022-08-25T10:27:14.000Z,63.04
2022-08-25T10:28:14.000Z,62.62
2022-08-25T10:29:14.000Z,62.22
2022-08-25T10:30:14.000Z,62.09
2022-08-25T10:31:14.000Z,62.65
2022-08-25T10:32:14.000Z,62.16
2022-08-25T10:33:14.000Z,61.44
2022-08-25T10:34:14.000Z,60.95
2022-08-25T10:35:14.000Z,59.84
2022-08-25T10:36:14.000Z,59.64
2022-08-25T10:37:14.000Z,59.71
2022-08-25T10:38:14.000Z,59.31
2022-08-25T10:39:14.000Z,60.69
2022-08-25T10:40:14.000Z,59.39
2022-08-25T10:41:14.000Z,59.09
2022-08-25T10:42:14.000Z,58.11
2022-08-25T10:43:14.000Z,57.81
2022-08-25T10:44:14.000Z,58.47
2022-08-25T10:45:14.000Z,58.76
2022-08-25T10:46:14.000Z,57.88
2022-08-25T10:47:14.000Z,58.70
2022-08-25T10:48:14.000Z,59.09
2022-08-25T10:49:14.000Z,58.60
2022-08-25T10:50:14.000Z,58.70
2022-08-25T10:51:14.000Z,58.50
2022-08-25T10:52:14.000Z,58.89
2022-08-25T10:53:14.000Z,58.08
2022-08-25T10:54:14.000Z,58.18
2022-08-25T10:55:14.000Z,57.29
2022-08-25T10:56:14.000Z,57.91
2022-08-25T10:57:14.000Z,58.11
2022-08-25T10:58:14.000Z,58.01
2022-08-25T10:59:14.000Z,58.72
2022-08-25T11:00:14.000Z,58.95
2022-08-25T11:01:14.000Z,59.34
2022-08-25T11:02:14.000Z,59.27
2022-08-25T11:03:14.000Z,59.86
2022-08-25T11:04:14.000Z,61.18
2022-08-25T11:05:14.000Z,60.88
2022-08-25T11:06:14.000Z,61.50
2022-08-25T11:07:14.000Z,61.27
2022-08-25T11:08:14.000Z,61.18
2022-08-25T11:09:14.000Z,61.27
2022-08-25T11:10:14.000Z,61.69
2022-08-25T11:11:14.000Z,61.60
2022-08-25T11:12:14.000Z,61.69
2022-08-25T11:13:14.000Z,61.90
2022-08-25T11:14:14.000Z,62.49
2022-08-25T11:15:14.000Z,62.12
2022-08-25T11:16:14.000Z,61.96
2022-08-25T11:17:14.000Z,62.35
2022-08-25T11:18:14.000Z,63.04
2022-08-25T11:19:14.000Z,62.65
2022-08-25T11:20:14.000Z,63.37
2022-08-25T11:21:14.000Z,62.28
2022-08-25T11:22:14.000Z,63.63
2022-08-25T11:23:14.000Z,62.38
2022-08-25T11:24:14.000Z,61.40
2022-08-25T11:25:14.000Z,60.54
2022-08-25T11:26:14.000Z,61.24
2022-08-25T11:27:14.000Z,61.85
2022-08-25T11:28:14.000Z,61.96
2022-08-25T11:29:14.000Z,62.08
2022-08-25T11:30:14.000Z,62.57
2022-08-25T11:31:14.000Z,62.68
2022-08-25T11:32:14.000Z,63.10
2022-08-25T11:33:14.000Z,63.17
2022-08-25T11:34:14.000Z,63.37
2022-08-25T11:35:14.000Z,60.97
2022-08-25T11:36:14.000Z,59.72
2022-08-25T11:37:14.000Z,58.02
2022-08-25T11:38:14.000Z,57.21
2022-08-25T11:39:14.000Z,56.39
2022-08-25T11:40:13.000Z,55.58
2022-08-25T11:41:13.000Z,56.14
2022-08-25T11:42:13.000Z,55.75
2022-08-25T11:43:13.000Z,55.35
2022-08-25T11:44:13.000Z,56.34
2022-08-25T11:45:13.000Z,56.43
2022-08-25T11:46:13.000Z,56.14
2022-08-25T11:47:13.000Z,55.77
2022-08-25T11:48:13.000Z,55.18
2022-08-25T11:49:13.000Z,56.16
2022-08-25T11:50:13.000Z,55.85
2022-08-25T11:51:13.000Z,55.13
2022-08-25T11:52:13.000Z,54.12
2022-08-25T11:53:13.000Z,53.41
2022-08-25T11:54:13.000Z,53.77
2022-08-25T11:55:13.000Z,53.65
2022-08-25T11:56:13.000Z,53.06
2022-08-25T11:57:13.000Z,52.64
2022-08-25T11:58:13.000Z,51.66
2022-08-25T11:59:13.000Z,52.13
2022-08-25T12:00:13.000Z,51.90
2022-08-25T12:01:13.000Z,52.81
2022-08-25T12:02:13.000Z,52.69
2022-08-25T12:03:13.000Z,53.08
2022-08-25T12:04:13.000Z,52.50
2022-08-25T12:05:13.000Z,53.20
2022-08-25T12:06:13.000Z,53.92
2022-08-25T12:07:13.000Z,53.82
2022-08-25T12:08:13.000Z,53.85
2022-08-25T12:09:13.000Z,54.31
2022-08-25T12:10:13.000Z,54.41
2022-08-25T12:11:13.000Z,54.33
2022-08-25T12:12:13.000Z,54.17
2022-08-25T12:13:13.000Z,55.86
2022-08-25T12:14:13.000Z,55.76
2022-08-25T12:15:13.000Z,55.54
2022-08-25T12:16:13.000Z,54.66
2022-08-25T12:17:13.000Z,54.85